Bakerville, Wisconsin
Current Conditions -  °F | °C
As of 3:54 PM on Friday 31 Oct 2014 (Local Time) from KMFI Reporting Station
Overcast Overcast  
Wind Chill: 29°   Ceiling: 4900
Heat Index: 37°   Visibility: 10mi
Dew Point: 18°   Wind: 13mph
Humidity: 46%   Direction: 30°NNE
Pressure: 30.41"   Gusts: 23mph
Location:  44.6413°N, 90.1945°W
Report Text: KMFI 312054Z AUTO 03011G20KT 10SM OVC049 03/M08 A3041 RMK AO2 SLP311 T00281078 53000
Loading
Personal Weather Stations






























Interactive Weather Map
Tropical Storm Tracking
New forecast layout! Learn more

10-Day Weather Forecast

Advertisements
Track Severe Weather on mobile